createdAt,value
2023-07-29T00:04:48.071Z,77.39
2023-07-29T00:09:44.879Z,77.26
2023-07-29T00:14:41.640Z,77.05
2023-07-29T00:19:38.388Z,76.88
2023-07-29T00:24:35.206Z,76.82
2023-07-29T00:29:31.977Z,76.27
2023-07-29T00:34:28.793Z,75.80
2023-07-29T00:39:25.598Z,75.53
2023-07-29T00:44:22.597Z,75.59
2023-07-29T00:49:23.398Z,75.32
2023-07-29T00:54:20.199Z,75.43
2023-07-29T00:59:17.004Z,75.38
2023-07-29T01:04:13.785Z,75.39
2023-07-29T01:09:15.172Z,75.43
2023-07-29T01:14:30.036Z,75.54
2023-07-29T01:20:00.717Z,75.66
2023-07-29T01:24:57.475Z,75.20
2023-07-29T01:29:55.370Z,75.94
2023-07-29T01:35:01.877Z,76.62
2023-07-29T01:40:01.561Z,76.49
2023-07-29T01:44:58.514Z,76.76
2023-07-29T01:49:55.362Z,76.64
2023-07-29T01:54:52.099Z,76.86
2023-07-29T01:59:49.176Z,77.14
2023-07-29T02:04:46.757Z,77.05
2023-07-29T02:09:43.544Z,77.39
2023-07-29T02:14:40.459Z,77.50
2023-07-29T02:19:37.382Z,78.00
2023-07-29T02:24:34.172Z,78.34
2023-07-29T02:29:31.879Z,78.75
2023-07-29T02:34:28.660Z,79.08
2023-07-29T02:39:25.790Z,79.34
2023-07-29T02:44:22.707Z,79.70
2023-07-29T02:49:19.480Z,79.93
2023-07-29T02:54:16.263Z,79.96
2023-07-29T02:59:13.367Z,80.39
2023-07-29T03:04:10.132Z,80.73
2023-07-29T03:09:06.943Z,80.68
2023-07-29T03:14:03.773Z,80.89
2023-07-29T03:19:01.638Z,81.20
2023-07-29T03:23:58.671Z,81.17
2023-07-29T03:28:55.473Z,81.40
2023-07-29T03:33:52.310Z,81.42
2023-07-29T03:38:49.106Z,81.69
2023-07-29T03:43:45.868Z,80.71
2023-07-29T03:48:42.669Z,81.89
2023-07-29T03:53:39.443Z,82.45
2023-07-29T03:58:36.311Z,82.35
2023-07-29T04:03:35.373Z,82.63
2023-07-29T04:08:32.457Z,82.43
2023-07-29T04:13:29.711Z,82.69
2023-07-29T04:18:26.539Z,82.76
2023-07-29T04:23:23.461Z,82.68
2023-07-29T04:28:20.233Z,82.78
2023-07-29T04:33:17.051Z,82.74
2023-07-29T04:38:14.130Z,82.92
2023-07-29T04:43:10.945Z,82.86
2023-07-29T04:48:07.734Z,83.09
2023-07-29T04:53:04.560Z,83.23
2023-07-29T04:58:01.832Z,83.17
2023-07-29T05:02:58.937Z,83.64
2023-07-29T05:07:55.737Z,83.62
2023-07-29T05:12:52.516Z,83.65
2023-07-29T05:17:49.416Z,83.69
2023-07-29T05:22:46.298Z,82.73
2023-07-29T05:27:43.088Z,82.63
2023-07-29T05:32:39.928Z,82.84
2023-07-29T05:37:39.144Z,83.70
2023-07-29T05:42:36.644Z,83.78
2023-07-29T05:47:33.448Z,83.98
2023-07-29T05:52:30.243Z,84.18
2023-07-29T05:57:27.205Z,83.99
2023-07-29T06:02:23.997Z,83.91
2023-07-29T06:07:20.822Z,83.54
2023-07-29T06:12:17.604Z,83.43
2023-07-29T06:17:14.507Z,83.75
2023-07-29T06:22:11.528Z,83.60
2023-07-29T06:27:08.411Z,82.52
2023-07-29T06:32:05.789Z,82.30
2023-07-29T06:37:02.556Z,82.08
2023-07-29T06:41:59.366Z,80.90
2023-07-29T06:46:56.198Z,80.10
2023-07-29T06:51:53.046Z,79.95
2023-07-29T06:56:49.815Z,79.95
2023-07-29T07:01:46.768Z,80.24
2023-07-29T07:06:43.538Z,80.49
2023-07-29T07:11:40.305Z,80.83
2023-07-29T07:16:38.574Z,81.06
2023-07-29T07:21:36.037Z,81.34
2023-07-29T07:26:32.880Z,81.95
2023-07-29T07:31:29.954Z,82.12
2023-07-29T07:36:26.767Z,82.89
2023-07-29T07:41:23.624Z,83.62
2023-07-29T07:46:20.402Z,83.52
2023-07-29T07:51:19.605Z,83.70
2023-07-29T07:56:16.641Z,83.38
2023-07-29T08:01:13.856Z,83.65
2023-07-29T08:06:15.244Z,83.72
2023-07-29T08:11:15.397Z,84.15
2023-07-29T08:16:17.508Z,83.69
2023-07-29T08:21:19.641Z,83.39
2023-07-29T08:26:30.037Z,83.31
2023-07-29T08:31:35.517Z,82.89
2023-07-29T08:36:32.414Z,81.89
2023-07-29T08:41:38.326Z,80.42
2023-07-29T08:46:35.776Z,79.97
2023-07-29T08:51:33.368Z,79.59
2023-07-29T08:56:31.626Z,77.70
2023-07-29T09:01:28.977Z,77.10
2023-07-29T09:06:27.269Z,75.99
2023-07-29T09:11:24.783Z,74.86
2023-07-29T09:16:22.633Z,71.54
2023-07-29T09:21:24.779Z,70.85
2023-07-29T09:26:28.680Z,70.18
2023-07-29T09:31:30.291Z,68.67
2023-07-29T09:36:28.253Z,68.36
2023-07-29T09:41:26.905Z,66.05
2023-07-29T09:46:26.149Z,63.54
2023-07-29T09:51:23.165Z,63.50
2023-07-29T09:56:28.425Z,60.52
2023-07-29T10:01:28.189Z,59.44
2023-07-29T10:06:27.875Z,57.31
2023-07-29T10:11:27.685Z,57.37
2023-07-29T10:16:25.888Z,56.89
2023-07-29T10:21:24.424Z,54.90
2023-07-29T10:26:22.007Z,54.90
2023-07-29T10:31:19.347Z,53.81
2023-07-29T10:36:17.048Z,53.53
2023-07-29T10:41:13.942Z,51.63
2023-07-29T10:46:21.615Z,49.03
2023-07-29T10:51:32.078Z,49.34
2023-07-29T10:56:36.300Z,50.19
2023-07-29T11:01:34.353Z,52.01
2023-07-29T11:06:31.562Z,53.88
2023-07-29T11:11:28.854Z,54.29
2023-07-29T11:16:28.700Z,54.57
2023-07-29T11:21:26.823Z,55.26
2023-07-29T11:26:32.116Z,54.61
2023-07-29T11:38:16.445Z,50.49
2023-07-29T11:50:12.625Z,48.77
2023-07-29T11:55:14.884Z,48.94
2023-07-29T12:00:14.024Z,48.72
2023-07-29T12:05:14.242Z,47.52
2023-07-29T12:10:49.897Z,45.54
2023-07-29T12:16:04.241Z,48.05
2023-07-29T12:21:01.659Z,47.84
2023-07-29T12:26:18.158Z,47.23
2023-07-29T12:32:19.375Z,44.42
2023-07-29T12:37:16.334Z,45.59
2023-07-29T12:42:13.337Z,43.85
2023-07-29T12:47:15.021Z,43.25
2023-07-29T12:52:32.487Z,42.84
2023-07-29T12:57:42.644Z,40.99
2023-07-29T13:02:50.944Z,41.65
2023-07-29T13:08:03.160Z,40.72
2023-07-29T13:13:10.977Z,41.61
2023-07-29T13:18:07.972Z,40.07
2023-07-29T13:23:04.927Z,39.25
2023-07-29T13:28:01.799Z,38.50
2023-07-29T13:32:58.682Z,38.06
2023-07-29T13:37:58.051Z,37.37
2023-07-29T13:42:55.682Z,36.80
2023-07-29T13:47:57.461Z,36.19
2023-07-29T13:52:54.338Z,35.37
2023-07-29T13:57:51.517Z,35.18
2023-07-29T14:02:48.394Z,35.49
2023-07-29T14:07:45.190Z,36.13
2023-07-29T14:12:42.096Z,36.67
2023-07-29T14:17:38.971Z,37.35
2023-07-29T14:22:35.807Z,36.97
2023-07-29T14:27:32.665Z,38.47
2023-07-29T14:32:29.831Z,39.96
2023-07-29T14:37:27.109Z,40.69
2023-07-29T14:42:23.957Z,40.14
2023-07-29T14:47:23.155Z,38.38
2023-07-29T14:52:20.240Z,38.42
2023-07-29T14:57:18.585Z,37.57
2023-07-29T15:02:15.444Z,37.34
2023-07-29T15:07:12.323Z,37.61
2023-07-29T15:12:09.560Z,37.86
2023-07-29T15:17:06.933Z,38.68
2023-07-29T15:22:05.980Z,38.49
2023-07-29T15:27:02.766Z,38.71
2023-07-29T15:31:59.533Z,38.62
2023-07-29T15:36:56.278Z,39.07
2023-07-29T15:41:53.697Z,39.26
2023-07-29T15:46:53.164Z,38.96
2023-07-29T15:51:50.148Z,38.02
2023-07-29T15:56:46.956Z,37.60
2023-07-29T16:01:43.732Z,37.57
2023-07-29T16:06:40.650Z,38.20
2023-07-29T16:11:37.412Z,36.48
2023-07-29T16:16:34.248Z,36.48
2023-07-29T16:21:31.599Z,36.16
2023-07-29T16:26:28.709Z,35.40
2023-07-29T16:31:25.527Z,36.14
2023-07-29T16:36:22.306Z,36.42
2023-07-29T16:46:23.903Z,36.97
2023-07-29T16:51:20.998Z,37.96
2023-07-29T16:56:17.752Z,38.16
2023-07-29T17:01:14.760Z,38.75
2023-07-29T17:06:11.789Z,39.04
2023-07-29T17:11:09.054Z,39.10
2023-07-29T17:16:05.959Z,39.03
2023-07-29T17:21:02.702Z,39.63
2023-07-29T17:25:59.766Z,39.70
2023-07-29T17:30:56.500Z,40.22
2023-07-29T17:35:53.263Z,39.73
2023-07-29T17:40:50.549Z,40.02
2023-07-29T17:45:47.407Z,39.81
2023-07-29T17:50:44.389Z,39.75
2023-07-29T17:55:41.170Z,39.97
2023-07-29T18:00:38.063Z,39.65
2023-07-29T18:05:36.279Z,40.22
2023-07-29T18:10:33.344Z,40.53
2023-07-29T18:15:32.574Z,40.93
2023-07-29T18:20:29.443Z,41.05
2023-07-29T18:25:26.215Z,41.49
2023-07-29T18:30:23.297Z,41.67
2023-07-29T18:35:20.194Z,42.07
2023-07-29T18:40:17.045Z,41.97
2023-07-29T18:45:13.865Z,42.45
2023-07-29T18:50:10.945Z,42.79
2023-07-29T18:55:08.034Z,43.27
2023-07-29T19:00:05.970Z,43.89
2023-07-29T19:05:02.781Z,44.02
2023-07-29T19:09:59.539Z,44.33
2023-07-29T19:14:56.302Z,45.01
2023-07-29T19:19:53.497Z,45.44
2023-07-29T19:24:50.296Z,45.65
2023-07-29T19:29:48.251Z,45.84
2023-07-29T19:34:48.197Z,46.41
2023-07-29T19:39:44.982Z,46.53
2023-07-29T19:44:41.777Z,46.65
2023-07-29T19:49:38.578Z,47.16
2023-07-29T19:54:35.335Z,47.10
2023-07-29T19:59:46.787Z,47.85
2023-07-29T20:04:52.905Z,47.98
2023-07-29T20:09:49.761Z,48.15
2023-07-29T20:14:46.621Z,48.38
2023-07-29T20:19:43.393Z,48.63
2023-07-29T20:24:40.154Z,49.14
2023-07-29T20:29:37.275Z,49.24
2023-07-29T20:34:34.054Z,49.67
2023-07-29T20:39:31.228Z,49.95
2023-07-29T20:44:28.979Z,49.89
2023-07-29T20:49:25.807Z,50.44
2023-07-29T20:54:22.853Z,50.81
2023-07-29T20:59:19.733Z,50.94
2023-07-29T21:04:16.531Z,51.46
2023-07-29T21:09:14.614Z,51.42
2023-07-29T21:14:11.389Z,51.69
2023-07-29T21:19:08.266Z,52.10
2023-07-29T21:24:05.363Z,52.46
2023-07-29T21:29:02.185Z,52.98
2023-07-29T21:33:58.965Z,53.22
2023-07-29T21:38:58.126Z,53.33
2023-07-29T21:43:54.938Z,53.67
2023-07-29T21:48:51.715Z,53.87
2023-07-29T21:53:48.532Z,54.22
2023-07-29T21:58:45.352Z,54.54
2023-07-29T22:03:42.475Z,54.82
2023-07-29T22:08:39.270Z,54.94
2023-07-29T22:13:36.256Z,55.32
2023-07-29T22:18:33.101Z,55.50
2023-07-29T22:23:29.898Z,55.79
2023-07-29T22:28:27.623Z,55.87
2023-07-29T22:33:24.631Z,55.87
2023-07-29T22:38:21.550Z,55.97
2023-07-29T22:43:18.296Z,56.18
2023-07-29T22:48:15.078Z,56.25
2023-07-29T22:53:11.849Z,56.16
2023-07-29T22:58:08.596Z,56.38
2023-07-29T23:03:05.860Z,56.95
2023-07-29T23:08:02.747Z,56.98
2023-07-29T23:13:02.336Z,57.44
2023-07-29T23:17:59.179Z,57.58
2023-07-29T23:22:55.945Z,57.78
2023-07-29T23:27:52.866Z,57.76
2023-07-29T23:32:49.860Z,57.94
2023-07-29T23:37:49.075Z,58.53
2023-07-29T23:42:47.660Z,58.54
2023-07-29T23:47:44.459Z,58.91
2023-07-29T23:52:41.298Z,59.12
2023-07-29T23:57:38.094Z,59.55
